Antwerp, New York
Current Conditions -  °F | °C
As of 11:58 PM on Saturday 22 Nov 2014 (Local Time) from KGTB Reporting Station
Light Rain Light Rain  
Wind Chill:   Ceiling: 1100
Heat Index:   Visibility: 10mi
Dew Point:   Wind: 13mph
Humidity: 99%   Direction: 220°SW
Pressure: 29.94"   Gusts: NA
Location:  44.2°N, 75.61°W
Report Text: KGTB 230458Z AUTO 22011KT 10SM -RA OVC011 05/05 A2994 RMK AO2 UPE0405RAB0408DZB0405E0408B0445E0448 SLP145 P0000 T00470046 400491063
Loading
Personal Weather Stations






























Interactive Weather Map New forecast layout! Learn more

10-Day Weather Forecast

Advertisements
Track Severe Weather on mobile